Terminal Aerodrome Forecast
Issued by NWS

Home | Current Version | Previous Version | Text Only | Print | Product List | Glossary On
Versions: 1 2 3 4 5 6 7 8 9 10 11 12 13 14 15 16 17 18 19 20 21 22 23 24 25 26 27 28 29 30 31 32 33 34 35 36 37 38 39 40 41 42 43 44 45 46 47 48 49 50
341
FTUS45 KSLC 281120
TAF36U
TAF
K36U 281120Z 2812/0112 VRB04KT P6SM BKN010 BKN120
     FM281500 VRB04KT P6SM SCT040 BKN080
     FM281800 VRB04KT P6SM VCSH SCT020 BKN040
     FM282000 24010KT 2SM -SN BR SCT007 BKN015
     FM010200 VRB04KT P6SM VCSH SCT020 BKN040
     FM010900 VRB04KT P6SM SCT040 BKN120=

USA.gov is the U.S. government's official web portal to all federal, state and local government web resources and services.